KEZS

Shawano Municipal Airport

Shawano, Wisconsin, USA
METAR KEZS 170755Z AUTO 03005KT 10SM OVC018 M05/M07 A3015 RMK AO2 T10501066
Observed Flight Rules
Dec-17 @ 07:55 UTC (20 minutes ago) Marginal Visual Flight Rules
Wind Visibility Clouds
30° at 5 knots 10 miles
  • Overcast at 1,800' AGL
Temperatures Readings
Current -5°C / 23°F
Dewpoint -7°C / 19°F
Humidity 86%
Altimeter 30.15" Hg
Pressure 1021 hPa
Elevation 248
METAR KEZS 170755Z AUTO 03005KT 10SM OVC018 M05/M07 A3015 RMK AO2 T10501066
Observed Flight Rules
Dec-17 @ 07:55 UTC
(20 minutes ago)
MVFR
Wind Visibility
30° at 5 knots 10 miles
Clouds
  • Overcast at 1,800' AGL
Temperature Dewpoint
-5°C / 23°F -7°C / 19°F
Humidity Altimeter Pressure
86% 30.15" Hg 1021 hPa